Time;durP1;ratioP1;P1;durP2;ratioP2;P2;SDS_P1;SDS_P2;PMS_P1;PMS_P2;Temp;Humidity;BMP_temperature;BMP_pressure;BME280_temperature;BME280_humidity;BME280_pressure;Samples;Min_cycle;Max_cycle;Signal;HPM_P1;HPM_P2
2023/04/02 00:02:21;;;;;;;2.47;1.42;;;9.30;83.80;;;;;;5049710;28;20129;-67
2023/04/02 00:05:28;;;;;;;1.85;1.58;;;9.30;83.80;;;;;;5051009;28;20472;-66
2023/04/02 00:08:17;;;;;;;1.90;1.70;;;9.30;83.60;;;;;;5052254;28;20496;-69
2023/04/02 00:11:02;;;;;;;3.58;1.77;;;9.20;83.80;;;;;;5052657;28;20479;-67
2023/04/02 00:13:38;;;;;;;2.00;1.52;;;9.20;83.70;;;;;;5044359;28;20063;-67
2023/04/02 00:16:07;;;;;;;1.60;1.30;;;9.20;83.80;;;;;;5050030;28;20084;-66
2023/04/02 00:18:37;;;;;;;1.88;1.58;;;9.20;83.80;;;;;;5051172;28;20018;-66
2023/04/02 00:21:26;;;;;;;3.83;1.42;;;9.20;83.80;;;;;;5044664;28;20770;-66
2023/04/02 00:23:58;;;;;;;2.53;1.60;;;9.20;83.50;;;;;;5049510;28;20046;-67
2023/04/02 00:26:35;;;;;;;2.55;1.73;;;9.20;83.60;;;;;;5045624;28;20234;-66
2023/04/02 00:29:04;;;;;;;3.33;1.48;;;9.10;83.50;;;;;;5046415;28;20017;-67
2023/04/02 00:31:30;;;;;;;1.88;1.20;;;9.10;83.60;;;;;;5049624;28;20111;-67
2023/04/02 00:33:58;;;;;;;2.50;1.40;;;9.10;83.70;;;;;;5054080;28;20480;-67
2023/04/02 00:36:25;;;;;;;3.55;1.65;;;9.10;83.50;;;;;;5050325;28;20369;-63
2023/04/02 00:38:53;;;;;;;5.18;1.83;;;9.10;83.50;;;;;;5044219;28;20407;-64
2023/04/02 00:41:23;;;;;;;1.50;1.20;;;9.10;83.50;;;;;;5038048;28;20032;-63
2023/04/02 00:43:52;;;;;;;2.45;1.35;;;9.20;83.60;;;;;;5042548;28;20028;-64
2023/04/02 00:46:28;;;;;;;2.30;1.40;;;9.20;83.50;;;;;;5047966;28;20128;-63
2023/04/02 00:49:30;;;;;;;2.05;1.77;;;9.20;83.40;;;;;;5034238;28;20125;-63
2023/04/02 00:52:05;;;;;;;2.50;1.45;;;9.30;83.20;;;;;;5044200;28;20044;-65
2023/04/02 00:54:38;;;;;;;1.80;1.33;;;9.20;83.30;;;;;;5047240;28;20090;-63
2023/04/02 00:57:13;;;;;;;2.40;1.95;;;9.20;83.30;;;;;;5058268;28;20106;-64
2023/04/02 00:59:50;;;;;;;2.83;1.98;;;9.10;83.30;;;;;;5045941;28;20533;-63
2023/04/02 01:02:17;;;;;;;3.78;2.10;;;9.00;83.30;;;;;;5049191;28;20089;-64
2023/04/02 01:04:55;;;;;;;3.05;2.28;;;9.00;83.40;;;;;;5036105;28;20028;-63
2023/04/02 01:07:57;;;;;;;3.45;2.08;;;9.00;83.40;;;;;;5048451;28;20108;-63
2023/04/02 01:10:28;;;;;;;1.45;1.30;;;9.00;83.20;;;;;;5044473;28;20495;-63
2023/04/02 01:13:12;;;;;;;2.40;1.60;;;8.90;83.40;;;;;;5049148;28;20499;-63
2023/04/02 01:15:50;;;;;;;5.15;2.05;;;8.90;83.20;;;;;;5048910;28;20112;-64
2023/04/02 01:18:39;;;;;;;2.55;1.58;;;8.90;83.10;;;;;;5047445;28;20029;-64
2023/04/02 01:21:05;;;;;;;1.40;1.20;;;8.90;83.10;;;;;;5038197;28;20069;-64
2023/04/02 01:23:37;;;;;;;2.28;1.58;;;8.90;83.10;;;;;;5041687;28;20033;-66
2023/04/02 01:26:09;;;;;;;;;;;8.90;83.10;;;;;;5043275;28;20033;-64
2023/04/02 01:29:07;;;;;;;2.67;1.77;;;8.80;82.90;;;;;;5040925;28;19916;-67
2023/04/02 01:31:34;;;;;;;2.65;2.15;;;8.80;82.90;;;;;;5043991;28;20022;-67
2023/04/02 01:34:02;;;;;;;1.58;1.23;;;8.70;83.00;;;;;;5042482;28;20365;-64
2023/04/02 01:36:43;;;;;;;2.92;1.38;;;8.70;82.90;;;;;;5046581;28;20029;-63
2023/04/02 01:39:25;;;;;;;2.10;1.83;;;8.70;83.00;;;;;;5047036;28;20079;-68
2023/04/02 01:42:08;;;;;;;4.00;1.67;;;8.70;82.90;;;;;;5049715;28;20029;-66
2023/04/02 01:44:38;;;;;;;2.45;1.42;;;8.70;82.80;;;;;;5047452;28;20036;-67
2023/04/02 01:47:09;;;;;;;3.00;1.77;;;8.70;82.70;;;;;;5048486;28;20033;-67
2023/04/02 01:49:35;;;;;;;3.22;2.03;;;8.70;82.70;;;;;;5047627;28;20369;-63
2023/04/02 01:52:01;;;;;;;4.50;1.90;;;8.70;82.70;;;;;;5046360;28;20021;-64
2023/04/02 01:54:27;;;;;;;4.10;1.92;;;8.70;82.50;;;;;;5044697;28;20029;-67
2023/04/02 01:56:56;;;;;;;3.97;2.30;;;8.60;82.30;;;;;;5049087;28;20043;-67
2023/04/02 01:59:22;;;;;;;3.20;1.67;;;8.60;82.50;;;;;;5048022;28;20025;-67
2023/04/02 02:01:58;;;;;;;6.03;2.05;;;8.50;82.50;;;;;;5045845;28;20040;-67
2023/04/02 02:04:24;;;;;;;2.58;1.50;;;8.50;82.40;;;;;;5041283;28;20029;-63
2023/04/02 02:06:50;;;;;;;1.92;1.38;;;8.50;82.50;;;;;;5043158;28;20025;-63
2023/04/02 02:09:36;;;;;;;2.35;1.60;;;8.50;82.50;;;;;;5043944;28;20033;-63
2023/04/02 02:12:03;;;;;;;4.15;1.80;;;8.60;82.30;;;;;;5041105;28;20487;-63
2023/04/02 02:14:30;;;;;;;4.15;1.70;;;8.70;82.40;;;;;;5039894;28;20121;-64
2023/04/02 02:17:00;;;;;;;2.72;2.13;;;8.70;82.20;;;;;;5041220;28;20094;-63
2023/04/02 02:19:43;;;;;;;1.90;1.40;;;8.70;82.20;;;;;;5042744;28;20099;-64
2023/04/02 02:22:25;;;;;;;4.38;2.40;;;8.70;82.10;;;;;;5043646;28;20025;-64
2023/04/02 02:24:52;;;;;;;1.90;1.63;;;8.60;82.10;;;;;;5035085;28;20040;-63
2023/04/02 02:27:24;;;;;;;4.03;2.45;;;8.60;82.20;;;;;;5037100;28;20060;-64
2023/04/02 02:29:57;;;;;;;2.67;1.98;;;8.60;82.30;;;;;;5040582;28;20013;-63
2023/04/02 02:32:27;;;;;;;6.35;2.60;;;8.60;82.40;;;;;;5038821;28;20122;-64
2023/04/02 02:35:39;;;;;;;8.25;1.98;;;8.50;82.30;;;;;;5044796;28;20024;-68
2023/04/02 02:38:25;;;;;;;3.28;2.40;;;8.50;82.30;;;;;;5031941;28;20526;-67
2023/04/02 02:40:55;;;;;;;3.83;2.58;;;8.50;82.50;;;;;;5044887;28;20021;-64
2023/04/02 02:43:21;;;;;;;3.58;2.47;;;8.40;82.50;;;;;;5049546;28;20036;-67
2023/04/02 02:45:48;;;;;;;2.45;2.25;;;8.40;82.40;;;;;;5048213;28;20082;-68
2023/04/02 02:48:19;;;;;;;2.47;1.92;;;8.50;82.50;;;;;;5040964;28;20029;-67
2023/04/02 02:50:45;;;;;;;2.20;1.92;;;8.50;82.40;;;;;;5046047;28;20461;-67
2023/04/02 02:53:21;;;;;;;2.80;1.67;;;8.40;82.10;;;;;;5052077;28;20056;-67
2023/04/02 02:55:52;;;;;;;5.38;1.92;;;8.40;82.00;;;;;;5052482;28;20483;-67
2023/04/02 02:58:30;;;;;;;2.95;2.17;;;8.30;82.20;;;;;;5046234;28;20037;-64
2023/04/02 03:00:57;;;;;;;2.92;2.08;;;8.30;82.30;;;;;;5044800;28;20079;-63
2023/04/02 03:03:27;;;;;;;3.40;1.90;;;8.30;82.20;;;;;;5038498;28;20029;-64
2023/04/02 03:06:01;;;;;;;1.90;1.65;;;8.40;82.20;;;;;;5049879;28;20052;-64
2023/04/02 03:08:35;;;;;;;3.60;1.40;;;8.30;81.90;;;;;;5050127;28;20025;-67
2023/04/02 03:11:06;;;;;;;1.83;1.50;;;8.30;82.10;;;;;;5051471;28;20465;-67
2023/04/02 03:13:37;;;;;;;2.15;1.33;;;8.20;82.00;;;;;;5045012;28;20041;-63
2023/04/02 03:16:26;;;;;;;2.70;1.92;;;8.20;81.90;;;;;;5050618;28;20041;-63
2023/04/02 03:19:15;;;;;;;2.28;1.55;;;8.20;81.80;;;;;;5050710;28;20024;-64
2023/04/02 03:22:12;;;;;;;2.70;1.70;;;8.20;81.80;;;;;;5051490;28;20110;-63
2023/04/02 03:24:59;;;;;;;1.27;1.02;;;8.30;81.70;;;;;;5048372;28;20415;-68
2023/04/02 03:27:27;;;;;;;3.63;1.70;;;8.30;81.70;;;;;;5043578;28;20041;-67
2023/04/02 03:30:20;;;;;;;1.15;1.05;;;8.30;81.70;;;;;;5075288;28;20029;-67
2023/04/02 03:32:50;;;;;;;1.65;1.40;;;8.30;81.20;;;;;;5048377;28;20044;-62
2023/04/02 03:35:34;;;;;;;1.83;1.45;;;8.20;81.50;;;;;;5049267;28;20051;-64
2023/04/02 03:38:05;;;;;;;1.70;1.30;;;8.20;81.60;;;;;;5051284;28;20021;-67
2023/04/02 03:40:37;;;;;;;1.70;1.55;;;8.20;81.40;;;;;;5047917;28;20021;-67
2023/04/02 03:43:09;;;;;;;5.37;2.93;;;8.20;81.30;;;;;;5046115;28;20084;-67
2023/04/02 03:45:42;;;;;;;2.47;1.85;;;8.10;81.30;;;;;;5052107;28;20032;-67
2023/04/02 03:48:51;;;;;;;3.35;1.95;;;8.10;81.40;;;;;;5051097;28;20036;-67
2023/04/02 03:51:29;;;;;;;5.78;2.20;;;8.10;81.40;;;;;;5049980;28;20037;-67
2023/04/02 03:53:56;;;;;;;2.53;1.60;;;8.10;81.40;;;;;;5049412;28;20016;-67
2023/04/02 03:56:30;;;;;;;2.47;1.83;;;8.00;81.30;;;;;;5045818;28;20059;-63
2023/04/02 03:59:15;;;;;;;2.83;1.92;;;8.00;81.20;;;;;;5042015;28;20025;-67
2023/04/02 04:02:07;;;;;;;3.40;2.00;;;8.00;81.10;;;;;;5039597;28;20025;-67
2023/04/02 04:04:38;;;;;;;6.70;2.63;;;7.90;81.20;;;;;;5058838;28;20456;-67
2023/04/02 04:07:08;;;;;;;2.63;1.92;;;7.80;81.40;;;;;;5050616;28;20059;-63
2023/04/02 04:09:40;;;;;;;2.20;1.92;;;7.80;81.10;;;;;;5044253;28;20551;-63
2023/04/02 04:12:35;;;;;;;4.00;2.63;;;7.80;81.20;;;;;;5050324;28;20025;-63
2023/04/02 04:15:19;;;;;;;2.75;1.92;;;7.80;81.20;;;;;;5045430;28;20048;-63
2023/04/02 04:18:00;;;;;;;2.80;2.28;;;7.80;81.00;;;;;;5048451;28;20473;-66
2023/04/02 04:20:36;;;;;;;4.70;2.08;;;7.80;80.90;;;;;;5047698;28;20023;-62
2023/04/02 04:23:35;;;;;;;2.42;1.80;;;7.80;81.00;;;;;;5045547;28;20469;-63
2023/04/02 04:26:11;;;;;;;4.32;2.20;;;7.80;80.80;;;;;;5048528;28;20060;-63
2023/04/02 04:29:11;;;;;;;2.90;1.80;;;7.90;80.90;;;;;;5045030;28;20057;-65
2023/04/02 04:31:48;;;;;;;3.17;2.00;;;7.90;80.60;;;;;;5045496;28;21101;-67
2023/04/02 04:34:18;;;;;;;4.03;2.90;;;7.90;80.60;;;;;;5040533;28;20480;-67
2023/04/02 04:36:55;;;;;;;4.03;1.75;;;7.80;80.60;;;;;;5050337;28;20017;-67
2023/04/02 04:39:41;;;;;;;4.90;2.53;;;7.80;80.40;;;;;;5050433;28;20020;-63
2023/04/02 04:42:22;;;;;;;2.03;1.30;;;7.70;81.00;;;;;;5038160;28;20049;-67
2023/04/02 04:45:07;;;;;;;2.50;1.73;;;7.70;80.20;;;;;;5050081;28;20024;-63
2023/04/02 04:47:40;;;;;;;2.17;1.55;;;7.60;80.10;;;;;;5037972;28;20391;-64
2023/04/02 04:50:39;;;;;;;2.75;1.85;;;7.60;80.20;;;;;;5049083;28;20017;-63
2023/04/02 04:53:07;;;;;;;3.17;2.03;;;7.50;80.00;;;;;;5041494;28;20029;-64
2023/04/02 04:55:43;;;;;;;1.38;1.17;;;7.50;79.90;;;;;;5042315;28;20017;-68
2023/04/02 04:58:25;;;;;;;2.75;1.10;;;7.50;79.90;;;;;;5043519;28;20120;-66
2023/04/02 05:01:13;;;;;;;1.88;1.50;;;7.50;79.60;;;;;;5046104;28;20482;-61
2023/04/02 05:04:05;;;;;;;4.47;1.30;;;7.40;79.50;;;;;;5036009;28;20469;-64
2023/04/02 05:06:36;;;;;;;1.58;1.17;;;7.40;79.40;;;;;;5041288;28;20071;-64
2023/04/02 05:09:28;;;;;;;2.50;1.13;;;7.30;79.40;;;;;;5046283;28;20029;-63
2023/04/02 05:12:23;;;;;;;1.50;0.95;;;7.20;79.10;;;;;;5038633;28;20013;-63
2023/04/02 05:15:01;;;;;;;2.58;1.30;;;7.20;79.10;;;;;;5040961;28;20114;-67
2023/04/02 05:17:49;;;;;;;3.33;1.80;;;7.20;78.90;;;;;;5049265;28;20021;-68
2023/04/02 05:20:26;;;;;;;1.92;1.10;;;7.10;78.80;;;;;;5045748;28;20124;-67
2023/04/02 05:23:20;;;;;;;2.17;1.10;;;7.10;78.60;;;;;;5042538;28;20147;-67
2023/04/02 05:26:13;;;;;;;1.23;0.70;;;7.10;78.60;;;;;;5036334;28;20029;-63
2023/04/02 05:29:07;;;;;;;3.63;1.17;;;7.10;78.50;;;;;;5035913;28;20396;-66
2023/04/02 05:32:14;;;;;;;1.38;0.98;;;7.10;78.70;;;;;;5031108;28;20033;-66
2023/04/02 05:34:44;;;;;;;0.90;0.77;;;7.00;78.10;;;;;;5036783;28;20057;-63
2023/04/02 05:37:18;;;;;;;1.73;1.27;;;7.00;78.10;;;;;;5049319;28;20048;-67
2023/04/02 05:39:45;;;;;;;1.65;1.00;;;7.00;77.90;;;;;;5042860;28;20032;-67
2023/04/02 05:42:24;;;;;;;3.38;1.15;;;6.90;78.00;;;;;;5049616;28;20522;-66
2023/04/02 05:45:19;;;;;;;3.42;1.65;;;7.00;78.20;;;;;;5048321;28;20047;-68
2023/04/02 05:47:47;;;;;;;1.20;0.88;;;6.90;78.00;;;;;;5044067;28;20033;-63
2023/04/02 05:50:20;;;;;;;1.50;0.88;;;6.90;77.90;;;;;;5040381;28;20029;-63
2023/04/02 05:52:53;;;;;;;1.48;0.98;;;7.00;77.90;;;;;;5048152;28;20017;-67
2023/04/02 05:55:36;;;;;;;1.48;0.73;;;7.00;77.70;;;;;;5043363;28;20034;-67
2023/04/02 05:58:23;;;;;;;2.38;0.98;;;7.00;77.70;;;;;;5037981;28;20385;-64
2023/04/02 06:01:29;;;;;;;1.38;1.05;;;7.00;77.70;;;;;;5045273;28;20525;-63
2023/04/02 06:03:58;;;;;;;0.90;0.63;;;7.00;77.50;;;;;;5044347;28;20037;-63
2023/04/02 06:07:11;;;;;;;0.50;0.50;;;7.00;77.50;;;;;;5046476;28;20083;-63
2023/04/02 06:09:49;;;;;;;0.77;0.55;;;7.10;77.30;;;;;;5039155;28;20095;-64
2023/04/02 06:12:22;;;;;;;1.58;0.90;;;7.00;77.30;;;;;;5047254;28;20034;-63
2023/04/02 06:14:48;;;;;;;3.70;0.90;;;6.90;77.00;;;;;;5045647;28;20036;-63
2023/04/02 06:17:16;;;;;;;0.77;0.75;;;6.80;76.90;;;;;;5046811;28;20105;-63
2023/04/02 06:19:42;;;;;;;3.42;0.73;;;6.80;77.10;;;;;;5044198;28;20021;-67
2023/04/02 06:22:34;;;;;;;2.22;1.30;;;6.70;77.10;;;;;;5046839;28;20035;-67
2023/04/02 06:25:25;;;;;;;1.48;1.02;;;6.70;77.10;;;;;;5044980;28;20076;-67
2023/04/02 06:27:54;;;;;;;2.38;0.90;;;6.70;77.20;;;;;;5044092;28;20037;-67
2023/04/02 06:30:29;;;;;;;0.85;0.75;;;6.60;77.10;;;;;;5039788;28;20021;-67
2023/04/02 06:32:54;;;;;;;1.75;0.80;;;6.60;77.10;;;;;;5049365;28;20100;-62
2023/04/02 06:35:20;;;;;;;1.10;1.00;;;6.60;77.00;;;;;;5044950;28;20221;-68
2023/04/02 06:37:48;;;;;;;1.15;0.80;;;6.60;76.90;;;;;;5048099;28;20033;-66
2023/04/02 06:40:45;;;;;;;0.70;0.43;;;6.70;76.80;;;;;;5049472;28;20013;-67
2023/04/02 06:43:34;;;;;;;0.60;0.60;;;6.70;76.70;;;;;;5046247;28;20108;-67
2023/04/02 06:46:07;;;;;;;0.98;0.57;;;6.70;76.50;;;;;;5049735;28;20017;-67
2023/04/02 06:48:34;;;;;;;;;;;6.70;76.50;;;;;;5045812;28;20330;-67
2023/04/02 06:51:07;;;;;;;1.00;0.85;;;6.60;76.40;;;;;;5051240;28;19912;-67
2023/04/02 06:53:40;;;;;;;1.13;0.68;;;6.60;76.50;;;;;;5044301;28;20026;-63
2023/04/02 06:56:40;;;;;;;1.38;0.90;;;6.60;76.40;;;;;;5042602;28;20029;-67
2023/04/02 06:59:08;;;;;;;0.93;0.80;;;6.60;76.30;;;;;;5044174;28;20423;-63
2023/04/02 07:02:06;;;;;;;2.13;0.80;;;6.50;76.40;;;;;;5039877;28;20043;-63
2023/04/02 07:04:32;;;;;;;3.20;0.95;;;6.70;76.30;;;;;;5044420;28;20076;-68
2023/04/02 07:06:58;;;;;;;1.30;0.95;;;6.70;76.30;;;;;;5049803;28;20524;-66
2023/04/02 07:09:24;;;;;;;0.77;0.68;;;6.80;76.20;;;;;;5041970;28;20025;-64
2023/04/02 07:11:50;;;;;;;0.70;0.60;;;6.80;76.00;;;;;;5039658;28;20021;-67
2023/04/02 07:14:16;;;;;;;1.02;0.70;;;6.90;76.00;;;;;;5046487;28;20068;-64
2023/04/02 07:16:43;;;;;;;3.00;1.08;;;6.90;75.90;;;;;;5051311;28;20115;-67
2023/04/02 07:19:17;;;;;;;1.13;0.50;;;7.00;75.70;;;;;;5047722;28;20026;-66
2023/04/02 07:21:43;;;;;;;1.15;0.88;;;7.00;75.60;;;;;;5049711;28;20025;-65
2023/04/02 07:24:09;;;;;;;1.33;0.95;;;7.10;75.60;;;;;;5050532;28;20028;-64
2023/04/02 07:26:34;;;;;;;2.45;1.00;;;7.00;75.30;;;;;;5047153;28;20065;-67
2023/04/02 07:29:00;;;;;;;0.70;0.70;;;7.00;75.20;;;;;;5044957;28;20033;-67
2023/04/02 07:31:27;;;;;;;1.15;0.80;;;7.00;75.00;;;;;;5043105;28;20033;-67
2023/04/02 07:33:58;;;;;;;2.13;1.00;;;7.00;75.30;;;;;;5049595;28;20553;-67
2023/04/02 07:36:25;;;;;;;4.78;1.40;;;7.00;75.20;;;;;;5051688;28;20279;-66
2023/04/02 07:38:54;;;;;;;1.45;1.00;;;7.10;75.20;;;;;;5046015;28;20021;-68
2023/04/02 07:41:20;;;;;;;7.22;1.17;;;7.10;75.30;;;;;;5047857;28;20036;-67
2023/04/02 07:43:46;;;;;;;0.82;0.77;;;7.10;75.30;;;;;;5039331;28;20034;-67
2023/04/02 07:46:15;;;;;;;2.47;0.70;;;7.20;75.30;;;;;;5048114;28;20038;-66
2023/04/02 07:48:41;;;;;;;1.80;1.13;;;7.30;75.20;;;;;;5051469;28;20017;-67
2023/04/02 07:51:23;;;;;;;2.90;1.10;;;7.30;75.10;;;;;;5051041;28;20024;-66
2023/04/02 07:53:50;;;;;;;1.13;0.80;;;7.30;74.80;;;;;;5050962;28;20440;-67
2023/04/02 07:56:17;;;;;;;1.90;0.93;;;7.20;74.80;;;;;;5052494;28;20051;-65
2023/04/02 07:58:43;;;;;;;3.10;1.80;;;7.20;74.90;;;;;;5050719;28;20036;-66
2023/04/02 08:01:23;;;;;;;1.73;0.98;;;7.20;74.60;;;;;;5049955;28;20029;-65
2023/04/02 08:03:49;;;;;;;2.50;1.02;;;7.20;74.60;;;;;;5048998;28;20025;-66
2023/04/02 08:06:15;;;;;;;1.88;1.33;;;7.20;74.60;;;;;;5050987;28;20017;-65
2023/04/02 08:08:41;;;;;;;1.10;1.00;;;7.10;74.40;;;;;;5050566;28;20036;-65
2023/04/02 08:11:07;;;;;;;1.10;1.00;;;7.10;74.30;;;;;;5045634;28;20029;-64
2023/04/02 08:13:33;;;;;;;2.95;1.08;;;7.10;74.40;;;;;;5045173;28;20037;-67
2023/04/02 08:16:00;;;;;;;2.40;1.13;;;7.20;74.50;;;;;;5049996;28;20602;-67
2023/04/02 08:18:27;;;;;;;1.63;1.13;;;7.20;74.40;;;;;;5047228;28;20036;-64
2023/04/02 08:20:52;;;;;;;3.08;0.98;;;7.20;74.30;;;;;;5042568;28;20029;-68
2023/04/02 08:23:18;;;;;;;1.17;0.73;;;7.20;74.30;;;;;;5048965;28;20373;-65
2023/04/02 08:25:45;;;;;;;0.68;0.52;;;7.20;74.40;;;;;;5043499;28;20039;-64
2023/04/02 08:28:11;;;;;;;1.75;0.60;;;7.20;74.40;;;;;;5033731;28;20440;-66
2023/04/02 08:30:37;;;;;;;0.77;0.77;;;7.20;74.30;;;;;;5042597;28;20022;-65
2023/04/02 08:33:03;;;;;;;1.73;0.57;;;7.30;74.10;;;;;;5040222;28;20033;-66
2023/04/02 08:35:29;;;;;;;0.82;0.60;;;7.30;74.10;;;;;;5042029;28;20021;-65
2023/04/02 08:37:55;;;;;;;0.40;0.40;;;7.40;74.00;;;;;;5048571;28;20476;-64
2023/04/02 08:40:50;;;;;;;3.85;0.90;;;7.40;73.90;;;;;;5039728;28;20043;-66
2023/04/02 08:43:37;;;;;;;1.58;1.00;;;7.50;73.80;;;;;;5033756;28;20025;-67
2023/04/02 08:46:24;;;;;;;1.38;1.10;;;7.50;73.50;;;;;;5038117;28;20040;-65
2023/04/02 08:48:57;;;;;;;2.58;1.48;;;7.50;73.60;;;;;;5046442;28;20033;-66
2023/04/02 08:51:29;;;;;;;3.03;1.38;;;7.60;73.60;;;;;;5035644;28;20024;-64
2023/04/02 08:54:05;;;;;;;2.22;1.20;;;7.60;73.20;;;;;;5041982;28;20040;-64
2023/04/02 08:56:43;;;;;;;7.15;1.15;;;7.60;73.00;;;;;;5047408;28;20029;-67
2023/04/02 08:59:31;;;;;;;0.95;0.80;;;7.70;73.10;;;;;;5041805;28;20087;-66
2023/04/02 09:02:18;;;;;;;0.93;0.70;;;7.70;73.10;;;;;;5038431;28;20085;-66
2023/04/02 09:04:44;;;;;;;2.53;1.33;;;7.80;73.20;;;;;;5036665;28;20047;-66
2023/04/02 09:07:15;;;;;;;1.10;1.00;;;7.90;73.10;;;;;;5040792;28;20033;-66
2023/04/02 09:09:41;;;;;;;2.47;0.87;;;7.90;72.40;;;;;;5050005;28;20033;-66
2023/04/02 09:12:23;;;;;;;2.60;0.90;;;7.90;72.30;;;;;;5050812;28;20039;-67
2023/04/02 09:15:13;;;;;;;1.17;1.08;;;7.90;72.20;;;;;;5042971;28;20036;-66
2023/04/02 09:17:40;;;;;;;7.05;0.85;;;8.00;72.00;;;;;;5059406;28;20078;-67
2023/04/02 09:20:20;;;;;;;0.88;0.80;;;8.00;72.00;;;;;;5050316;28;20036;-66
2023/04/02 09:22:49;;;;;;;1.17;0.60;;;8.10;72.00;;;;;;5040937;28;20440;-66
2023/04/02 09:25:30;;;;;;;1.75;1.02;;;8.20;71.70;;;;;;5049632;28;20115;-66
2023/04/02 09:28:00;;;;;;;1.77;1.10;;;8.30;71.70;;;;;;5046066;28;20013;-66
2023/04/02 09:31:05;;;;;;;2.40;0.95;;;8.40;71.50;;;;;;5039411;28;20028;-65
2023/04/02 09:33:49;;;;;;;1.65;0.90;;;8.50;71.50;;;;;;5020918;28;20428;-66
2023/04/02 09:36:35;;;;;;;1.33;1.20;;;8.60;70.80;;;;;;5050422;28;20039;-66
2023/04/02 09:39:05;;;;;;;1.35;0.60;;;8.60;70.30;;;;;;5035441;28;20060;-66
2023/04/02 09:41:33;;;;;;;1.02;0.90;;;8.50;70.30;;;;;;5047024;28;20488;-65
2023/04/02 09:44:22;;;;;;;1.70;1.33;;;8.50;70.70;;;;;;5050272;28;20029;-66
2023/04/02 09:47:05;;;;;;;0.93;0.65;;;8.60;70.80;;;;;;5043896;28;20384;-65
2023/04/02 09:49:34;;;;;;;;;;;8.70;70.70;;;;;;5040155;28;20028;-67
2023/04/02 09:52:25;;;;;;;1.50;0.70;;;8.70;70.50;;;;;;5049828;28;19913;-66
2023/04/02 09:55:17;;;;;;;0.80;0.68;;;8.80;70.20;;;;;;5038433;28;20032;-67
2023/04/02 09:57:45;;;;;;;3.25;1.00;;;8.80;70.00;;;;;;5045332;28;20108;-64
2023/04/02 10:00:26;;;;;;;0.88;0.60;;;8.70;69.90;;;;;;5046963;28;20036;-65
2023/04/02 10:03:05;;;;;;;0.57;0.57;;;8.70;70.00;;;;;;5042154;28;20142;-65
2023/04/02 10:05:32;;;;;;;1.08;0.60;;;8.70;69.80;;;;;;5040895;28;20021;-66
2023/04/02 10:08:28;;;;;;;0.60;0.60;;;8.60;69.40;;;;;;5047317;28;20021;-69
2023/04/02 10:10:58;;;;;;;1.88;0.73;;;8.50;69.60;;;;;;5044044;28;20095;-64
2023/04/02 10:13:47;;;;;;;2.47;1.33;;;8.60;69.80;;;;;;5047322;28;20717;-65
2023/04/02 10:16:21;;;;;;;0.60;0.60;;;8.80;69.80;;;;;;5050148;28;20033;-65
2023/04/02 10:18:57;;;;;;;0.90;0.60;;;9.30;69.20;;;;;;5037291;28;20105;-65
2023/04/02 10:21:27;;;;;;;4.07;0.50;;;9.70;68.50;;;;;;5042190;28;20037;-64
2023/04/02 10:23:54;;;;;;;0.47;0.47;;;10.00;67.90;;;;;;5047070;28;20043;-64
2023/04/02 10:26:37;;;;;;;0.43;0.43;;;10.30;67.50;;;;;;5029027;28;20045;-66
2023/04/02 10:29:37;;;;;;;1.95;1.00;;;10.60;67.10;;;;;;5049791;28;20045;-66
2023/04/02 10:32:22;;;;;;;1.65;0.50;;;10.80;66.10;;;;;;5045026;28;20033;-64
2023/04/02 10:35:34;;;;;;;3.53;0.93;;;11.00;65.80;;;;;;5044229;28;20032;-64
2023/04/02 10:38:14;;;;;;;2.13;0.70;;;11.30;65.30;;;;;;5041331;28;20067;-65
2023/04/02 10:40:53;;;;;;;0.68;0.60;;;11.60;65.20;;;;;;5040038;28;20021;-66
2023/04/02 10:43:37;;;;;;;1.02;0.73;;;11.80;63.70;;;;;;5047228;28;20017;-66
2023/04/02 10:46:42;;;;;;;0.95;0.88;;;11.90;63.50;;;;;;5041775;28;20094;-67
2023/04/02 10:49:30;;;;;;;1.15;0.95;;;11.90;63.30;;;;;;5034435;28;20037;-67
2023/04/02 10:52:17;;;;;;;0.85;0.75;;;12.00;63.30;;;;;;5047672;28;20031;-66
2023/04/02 10:54:49;;;;;;;0.55;0.55;;;12.20;62.20;;;;;;5042893;28;20017;-66
2023/04/02 10:57:38;;;;;;;0.73;0.60;;;12.30;60.90;;;;;;5039705;28;20117;-65
2023/04/02 11:00:10;;;;;;;0.95;0.85;;;12.40;61.40;;;;;;5049481;28;20388;-66
2023/04/02 11:03:08;;;;;;;2.08;1.02;;;12.60;61.10;;;;;;5049537;28;20017;-66
2023/04/02 11:05:44;;;;;;;0.85;0.50;;;12.80;61.20;;;;;;5050550;28;20024;-65
2023/04/02 11:08:32;;;;;;;0.52;0.52;;;13.00;60.50;;;;;;5042429;28;20607;-65
2023/04/02 11:11:04;;;;;;;0.50;0.50;;;13.10;60.00;;;;;;5034601;28;20048;-65
2023/04/02 11:13:46;;;;;;;0.80;0.60;;;13.20;59.90;;;;;;5046830;28;20057;-66
2023/04/02 11:16:15;;;;;;;0.88;0.75;;;13.20;59.30;;;;;;5042931;28;20038;-65
2023/04/02 11:18:43;;;;;;;1.75;0.45;;;13.20;59.20;;;;;;5048368;28;20041;-65
2023/04/02 11:21:40;;;;;;;1.48;0.75;;;13.30;59.50;;;;;;5051795;28;20029;-65
2023/04/02 11:24:21;;;;;;;0.35;0.30;;;13.40;58.70;;;;;;5039461;28;20037;-66
2023/04/02 11:26:47;;;;;;;2.45;0.88;;;13.50;58.20;;;;;;5053568;28;20041;-64
2023/04/02 11:29:20;;;;;;;0.63;0.50;;;13.50;58.10;;;;;;5029979;28;20453;-67
2023/04/02 11:31:47;;;;;;;2.00;0.60;;;13.60;57.70;;;;;;5042350;28;20059;-66
2023/04/02 11:34:33;;;;;;;0.52;0.52;;;13.60;55.60;;;;;;5044228;28;20078;-66
2023/04/02 11:37:02;;;;;;;0.40;0.40;;;13.50;56.40;;;;;;5046903;28;20029;-65
2023/04/02 11:39:52;;;;;;;0.70;0.47;;;13.60;56.80;;;;;;5047602;28;20507;-66
2023/04/02 11:42:17;;;;;;;1.35;0.60;;;13.70;55.90;;;;;;5045006;28;20021;-64
2023/04/02 11:44:43;;;;;;;0.90;0.80;;;13.80;56.00;;;;;;5041636;28;20037;-65
2023/04/02 11:47:24;;;;;;;2.20;0.70;;;13.90;54.80;;;;;;5050012;28;20171;-65
2023/04/02 11:49:57;;;;;;;2.97;0.70;;;13.90;54.40;;;;;;5043324;28;20074;-64
2023/04/02 11:52:51;;;;;;;0.82;0.63;;;13.90;54.50;;;;;;5037184;28;20025;-65
2023/04/02 11:55:31;;;;;;;0.77;0.63;;;14.00;54.70;;;;;;5048688;28;20092;-65
2023/04/02 11:58:28;;;;;;;0.60;0.60;;;14.10;54.30;;;;;;5046962;28;20033;-65
2023/04/02 12:01:33;;;;;;;4.03;0.98;;;14.20;54.10;;;;;;5047115;28;20041;-66
2023/04/02 12:04:18;;;;;;;1.30;0.70;;;14.30;53.70;;;;;;5051266;28;20098;-66
2023/04/02 12:07:25;;;;;;;2.15;0.85;;;14.40;53.10;;;;;;5047969;28;20531;-66
2023/04/02 12:09:54;;;;;;;0.75;0.73;;;14.50;53.30;;;;;;5049137;28;20031;-66
2023/04/02 12:12:23;;;;;;;1.75;0.85;;;14.60;53.30;;;;;;5051845;28;20122;-66
2023/04/02 12:14:53;;;;;;;3.85;1.17;;;14.70;52.30;;;;;;5049006;28;20128;-66
2023/04/02 12:17:30;;;;;;;6.85;0.63;;;14.80;52.50;;;;;;5051105;28;20028;-66
2023/04/02 12:20:08;;;;;;;1.55;1.00;;;15.00;52.90;;;;;;5044757;28;20033;-66
2023/04/02 12:22:39;;;;;;;0.50;0.50;;;15.20;52.40;;;;;;5042395;28;20033;-66
2023/04/02 12:25:17;;;;;;;1.45;0.98;;;15.30;52.30;;;;;;5048537;28;20041;-65
2023/04/02 12:27:45;;;;;;;1.30;0.60;;;15.40;52.10;;;;;;5044774;28;20456;-65
2023/04/02 12:30:22;;;;;;;2.30;0.93;;;15.50;51.90;;;;;;5046820;28;20039;-66
2023/04/02 12:32:49;;;;;;;2.22;0.50;;;15.60;52.00;;;;;;5043986;28;20456;-65
2023/04/02 12:35:28;;;;;;;0.63;0.45;;;15.70;51.60;;;;;;5048003;28;20029;-66
2023/04/02 12:37:54;;;;;;;0.50;0.50;;;15.80;51.40;;;;;;5050898;28;20081;-66
2023/04/02 12:40:20;;;;;;;0.60;0.60;;;15.90;50.90;;;;;;5048660;28;20025;-66
2023/04/02 12:42:45;;;;;;;0.40;0.40;;;15.90;50.60;;;;;;5036274;28;20044;-66
2023/04/02 12:45:24;;;;;;;0.50;0.50;;;15.90;50.80;;;;;;5034085;28;20369;-66
2023/04/02 12:47:50;;;;;;;0.68;0.45;;;15.90;50.10;;;;;;5043902;28;20020;-67
2023/04/02 12:50:16;;;;;;;2.50;0.60;;;15.90;49.00;;;;;;5051873;28;20078;-65
2023/04/02 12:52:48;;;;;;;1.00;0.88;;;15.80;49.40;;;;;;5051732;28;20029;-65
2023/04/02 12:55:20;;;;;;;1.55;0.70;;;15.90;49.40;;;;;;5044155;28;20116;-64
2023/04/02 12:57:49;;;;;;;1.48;0.70;;;16.00;48.50;;;;;;5045544;28;20044;-66
2023/04/02 13:00:21;;;;;;;0.52;0.50;;;16.00;48.70;;;;;;5045263;28;20048;-66
2023/04/02 13:02:57;;;;;;;0.50;0.43;;;16.10;48.60;;;;;;5042177;28;20076;-61
2023/04/02 13:05:34;;;;;;;0.73;0.68;;;16.20;48.90;;;;;;5042755;28;20376;-62
2023/04/02 13:08:00;;;;;;;1.95;0.50;;;16.20;48.60;;;;;;5045024;28;20028;-65
2023/04/02 13:10:44;;;;;;;1.55;0.50;;;16.20;48.30;;;;;;5054617;28;20894;-63
2023/04/02 13:13:15;;;;;;;0.85;0.40;;;16.10;48.00;;;;;;5035142;28;20040;-62
2023/04/02 13:15:42;;;;;;;0.87;0.40;;;16.20;48.10;;;;;;5044111;28;20033;-63
2023/04/02 13:18:21;;;;;;;1.17;0.60;;;16.40;47.70;;;;;;5041161;28;20365;-64
2023/04/02 13:21:04;;;;;;;0.88;0.38;;;16.40;47.60;;;;;;5040517;28;20116;-65
2023/04/02 13:23:30;;;;;;;2.00;0.50;;;16.50;46.60;;;;;;5043003;28;20060;-64
2023/04/02 13:26:07;;;;;;;0.55;0.40;;;16.40;46.80;;;;;;5042794;28;20013;-66
2023/04/02 13:28:33;;;;;;;1.65;0.80;;;16.50;47.10;;;;;;5040891;28;20108;-65
2023/04/02 13:30:59;;;;;;;0.70;0.50;;;16.50;46.40;;;;;;5043940;28;20033;-65
2023/04/02 13:33:24;;;;;;;1.20;0.60;;;16.60;46.20;;;;;;5037175;28;20029;-65
2023/04/02 13:35:50;;;;;;;2.13;0.75;;;16.60;46.40;;;;;;5037313;28;20033;-67
2023/04/02 13:38:16;;;;;;;1.30;0.60;;;16.80;46.40;;;;;;5035442;28;20029;-66
2023/04/02 13:40:42;;;;;;;0.80;0.70;;;16.90;45.90;;;;;;5028314;28;20034;-67
2023/04/02 13:43:16;;;;;;;0.50;0.50;;;17.00;45.90;;;;;;5036229;28;20542;-65
2023/04/02 13:45:44;;;;;;;1.65;0.95;;;17.10;45.50;;;;;;5032826;28;20017;-65